createdAt,value
2022-10-11T00:00:36.778Z,14.70
2022-10-11T00:03:23.575Z,16.52
2022-10-11T00:06:10.529Z,19.88
2022-10-11T00:08:57.200Z,22.80
2022-10-11T00:11:26.939Z,14.50
2022-10-11T00:13:56.989Z,15.13
2022-10-11T00:16:23.699Z,15.57
2022-10-11T00:18:50.461Z,14.48
2022-10-11T00:21:17.619Z,12.82
2022-10-11T00:23:44.463Z,17.02
2022-10-11T00:26:14.369Z,16.38
2022-10-11T00:28:43.826Z,19.95
2022-10-11T00:31:15.784Z,18.35
2022-10-11T00:33:42.747Z,18.52
2022-10-11T00:36:13.622Z,15.48
2022-10-11T00:38:41.124Z,23.70
2022-10-11T00:41:07.847Z,15.50
2022-10-11T00:43:35.590Z,17.77
2022-10-11T00:46:25.536Z,14.90
2022-10-11T00:49:26.966Z,19.75
2022-10-11T00:52:03.399Z,18.38
2022-10-11T00:54:36.203Z,17.38
2022-10-11T00:57:12.985Z,14.55
2022-10-11T00:59:45.388Z,13.02
2022-10-11T01:02:14.344Z,24.10
2022-10-11T01:05:25.146Z,17.67
2022-10-11T01:07:48.504Z,20.85
2022-10-11T01:10:15.565Z,16.80
2022-10-11T01:13:33.494Z,18.85
2022-10-11T01:16:35.386Z,18.27
2022-10-11T01:19:15.506Z,17.90
2022-10-11T01:22:28.782Z,18.75
2022-10-11T01:25:51.272Z,14.70
2022-10-11T01:28:38.831Z,15.15
2022-10-11T01:31:17.714Z,18.08
2022-10-11T01:34:02.136Z,21.45
2022-10-11T01:36:32.233Z,18.73
2022-10-11T01:39:05.080Z,13.07
2022-10-11T01:41:39.787Z,17.60
2022-10-11T01:44:09.242Z,16.75
2022-10-11T01:46:37.205Z,17.98
2022-10-11T01:49:05.619Z,17.10
2022-10-11T01:51:42.021Z,17.90
2022-10-11T01:55:08.788Z,14.68
2022-10-11T01:57:58.688Z,12.40
2022-10-11T02:00:34.989Z,19.40
2022-10-11T02:03:33.944Z,12.02
2022-10-11T02:06:32.582Z,15.00
2022-10-11T02:09:08.459Z,17.85
2022-10-11T02:11:38.205Z,15.07
2022-10-11T02:14:18.614Z,15.80
2022-10-11T02:16:54.293Z,13.07
2022-10-11T02:19:32.434Z,15.18
2022-10-11T02:22:09.961Z,15.15
2022-10-11T02:24:44.529Z,19.25
2022-10-11T02:27:14.670Z,15.30
2022-10-11T02:29:46.361Z,17.73
2022-10-11T02:32:17.145Z,15.93
2022-10-11T02:34:53.461Z,15.30
2022-10-11T02:37:41.576Z,18.92
2022-10-11T02:40:29.437Z,13.13
2022-10-11T02:43:13.827Z,22.40
2022-10-11T02:45:50.894Z,18.48
2022-10-11T02:48:19.231Z,16.98
2022-10-11T02:50:46.398Z,16.65
2022-10-11T02:53:13.444Z,19.23
2022-10-11T02:55:40.455Z,14.60
2022-10-11T02:58:07.274Z,18.10
2022-10-11T03:00:34.024Z,18.63
2022-10-11T03:03:00.740Z,22.17
2022-10-11T03:05:27.606Z,20.15
2022-10-11T03:07:54.309Z,15.38
2022-10-11T03:10:21.172Z,13.82
2022-10-11T03:12:48.560Z,15.63
2022-10-11T03:15:15.517Z,10.90
2022-10-11T03:17:42.244Z,13.27
2022-10-11T03:20:09.634Z,16.00
2022-10-11T03:22:36.552Z,18.60
2022-10-11T03:25:04.800Z,18.10
2022-10-11T03:27:33.330Z,17.48
2022-10-11T03:30:00.433Z,18.23
2022-10-11T03:32:28.432Z,16.63
2022-10-11T03:34:55.204Z,21.40
2022-10-11T03:37:22.298Z,12.82
2022-10-11T03:39:49.065Z,12.65
2022-10-11T03:42:15.818Z,14.45
2022-10-11T03:44:42.617Z,13.35
2022-10-11T03:47:12.839Z,20.73
2022-10-11T03:49:43.442Z,13.90
2022-10-11T03:52:11.124Z,14.00
2022-10-11T03:54:38.066Z,14.77
2022-10-11T03:57:05.191Z,18.25
2022-10-11T03:59:32.088Z,15.63
2022-10-11T04:01:59.361Z,16.95
2022-10-11T04:04:26.290Z,14.52
2022-10-11T04:06:53.567Z,14.68
2022-10-11T04:09:25.343Z,12.55
2022-10-11T04:11:52.320Z,16.60
2022-10-11T04:14:19.188Z,13.65
2022-10-11T04:16:45.981Z,14.20
2022-10-11T04:19:12.820Z,14.65
2022-10-11T04:21:39.587Z,15.55
2022-10-11T04:24:06.573Z,19.05
2022-10-11T04:26:33.407Z,16.17
2022-10-11T04:29:00.408Z,11.80
2022-10-11T04:31:27.214Z,14.40
2022-10-11T04:33:53.988Z,15.32
2022-10-11T04:36:20.724Z,16.70
2022-10-11T04:38:47.796Z,16.13
2022-10-11T04:41:16.443Z,19.15
2022-10-11T04:43:43.383Z,14.93
2022-10-11T04:46:11.078Z,16.75
2022-10-11T04:48:38.650Z,14.07
2022-10-11T04:51:05.899Z,14.50
2022-10-11T04:53:32.666Z,17.70
2022-10-11T04:56:07.727Z,15.80
2022-10-11T04:58:36.654Z,14.25
2022-10-11T05:01:04.842Z,17.92
2022-10-11T05:03:34.145Z,16.90
2022-10-11T05:06:05.968Z,19.75
2022-10-11T05:08:34.519Z,15.48
2022-10-11T05:11:07.721Z,11.98
2022-10-11T05:13:37.212Z,18.95
2022-10-11T05:16:10.688Z,18.13
2022-10-11T05:18:40.455Z,14.75
2022-10-11T05:21:18.401Z,22.27
2022-10-11T05:23:49.790Z,19.88
2022-10-11T05:26:20.241Z,17.83
2022-10-11T05:28:48.497Z,19.77
2022-10-11T05:31:17.655Z,18.00
2022-10-11T05:33:46.120Z,16.98
2022-10-11T05:36:14.724Z,18.98
2022-10-11T05:38:43.554Z,17.83
2022-10-11T05:41:16.857Z,18.73
2022-10-11T05:43:45.883Z,14.52
2022-10-11T05:46:14.958Z,16.23
2022-10-11T05:49:01.679Z,13.75
2022-10-11T05:51:32.011Z,16.83
2022-10-11T05:53:59.029Z,14.68
2022-10-11T05:56:26.777Z,16.02
2022-10-11T05:58:54.959Z,13.90
2022-10-11T06:01:27.997Z,19.02
2022-10-11T06:03:55.877Z,17.92
2022-10-11T06:06:23.506Z,15.45
2022-10-11T06:08:52.497Z,19.38
2022-10-11T06:11:25.251Z,16.95
2022-10-11T06:13:58.091Z,16.25
2022-10-11T06:16:26.567Z,14.70
2022-10-11T06:18:57.639Z,17.00
2022-10-11T06:21:24.818Z,17.05
2022-10-11T06:23:58.252Z,14.45
2022-10-11T06:26:25.452Z,13.43
2022-10-11T06:28:52.994Z,12.75
2022-10-11T06:31:20.101Z,17.85
2022-10-11T06:33:47.058Z,15.82
2022-10-11T06:36:16.715Z,15.90
2022-10-11T06:38:45.491Z,18.98
2022-10-11T06:41:25.789Z,20.25
2022-10-11T06:43:57.094Z,18.17
2022-10-11T06:46:28.500Z,14.98
2022-10-11T06:48:58.253Z,18.83
2022-10-11T06:51:30.399Z,18.50
2022-10-11T06:54:01.759Z,17.40
2022-10-11T06:56:34.120Z,17.77
2022-10-11T06:59:05.575Z,17.95
2022-10-11T07:01:35.731Z,20.40
2022-10-11T07:04:06.620Z,19.75
2022-10-11T07:06:41.847Z,18.50
2022-10-11T07:09:15.093Z,22.92
2022-10-11T07:11:48.874Z,20.85
2022-10-11T07:14:20.132Z,18.95
2022-10-11T07:16:57.630Z,17.67
2022-10-11T07:19:27.685Z,21.38
2022-10-11T07:21:57.633Z,19.67
2022-10-11T07:24:25.077Z,19.15
2022-10-11T07:26:51.896Z,20.23
2022-10-11T07:29:19.034Z,17.77
2022-10-11T07:31:45.929Z,16.10
2022-10-11T07:34:12.719Z,19.75
2022-10-11T07:36:39.831Z,21.63
2022-10-11T07:39:08.751Z,19.20
2022-10-11T07:41:36.660Z,20.00
2022-10-11T07:44:03.552Z,21.00
2022-10-11T07:46:30.645Z,25.95
2022-10-11T07:48:57.473Z,18.05
2022-10-11T07:51:25.067Z,17.65
2022-10-11T07:53:56.364Z,22.67
2022-10-11T07:56:27.665Z,18.48
2022-10-11T07:58:58.670Z,16.25
2022-10-11T08:01:40.743Z,18.13
2022-10-11T08:04:07.569Z,19.70
2022-10-11T08:06:36.483Z,12.50
2022-10-11T08:09:04.255Z,18.38
2022-10-11T08:11:40.223Z,20.30
2022-10-11T08:14:09.152Z,13.93
2022-10-11T08:16:38.916Z,21.75
2022-10-11T08:19:07.403Z,14.75
2022-10-11T08:21:34.812Z,16.38
2022-10-11T08:24:04.250Z,16.63
2022-10-11T08:26:32.210Z,16.45
2022-10-11T08:29:03.370Z,21.88
2022-10-11T08:31:30.615Z,15.95
2022-10-11T08:33:57.496Z,17.55
2022-10-11T08:36:24.472Z,22.20
2022-10-11T08:38:51.336Z,19.25
2022-10-11T08:41:38.436Z,12.73
2022-10-11T08:44:51.747Z,17.77
2022-10-11T08:47:42.868Z,20.33
2022-10-11T08:50:20.769Z,17.05
2022-10-11T08:52:52.526Z,15.98
2022-10-11T08:55:38.238Z,16.15
2022-10-11T08:58:05.132Z,16.30
2022-10-11T09:00:36.309Z,15.50
2022-10-11T09:03:21.957Z,11.95
2022-10-11T09:06:16.224Z,13.45
2022-10-11T09:09:40.009Z,13.52
2022-10-11T09:12:29.519Z,14.45
2022-10-11T09:15:26.924Z,15.32
2022-10-11T09:18:49.847Z,17.05
2022-10-11T09:21:42.001Z,19.58
2022-10-11T09:24:31.838Z,16.92
2022-10-11T09:27:14.155Z,13.52
2022-10-11T09:29:55.965Z,12.45
2022-10-11T09:32:28.807Z,11.68
2022-10-11T09:35:10.504Z,11.40
2022-10-11T09:37:57.745Z,14.70
2022-10-11T09:41:07.781Z,16.35
2022-10-11T09:43:34.732Z,10.10
2022-10-11T09:46:01.831Z,12.70
2022-10-11T09:48:41.555Z,13.88
2022-10-11T09:51:29.143Z,11.32
2022-10-11T09:54:05.645Z,11.15
2022-10-11T09:56:40.195Z,9.30
2022-10-11T09:59:27.751Z,12.00
2022-10-11T10:02:12.781Z,13.65
2022-10-11T10:05:16.451Z,13.27
2022-10-11T10:10:48.760Z,16.48
2022-10-11T10:13:29.695Z,12.45
2022-10-11T10:15:59.227Z,12.68
2022-10-11T10:18:42.561Z,7.90
2022-10-11T10:21:14.978Z,18.75
2022-10-11T10:23:43.173Z,13.18
2022-10-11T10:26:20.471Z,7.07
2022-10-11T10:28:59.272Z,10.32
2022-10-11T10:32:12.997Z,9.48
2022-10-11T10:34:41.482Z,11.60
2022-10-11T10:37:54.165Z,9.93
2022-10-11T10:40:41.310Z,6.50
2022-10-11T10:43:18.699Z,6.80
2022-10-11T10:46:16.599Z,6.13
2022-10-11T10:52:20.709Z,6.18
2022-10-11T10:55:14.666Z,7.50
2022-10-11T10:58:07.122Z,6.60
2022-10-11T11:00:47.545Z,8.55
2022-10-11T11:03:32.219Z,12.10
2022-10-11T11:06:08.343Z,9.93
2022-10-11T11:09:00.036Z,7.32
2022-10-11T11:12:02.973Z,8.45
2022-10-11T11:14:41.581Z,9.05
2022-10-11T11:17:29.454Z,12.05
2022-10-11T11:20:17.082Z,8.25
2022-10-11T11:23:10.281Z,8.27
2022-10-11T11:25:51.185Z,11.32
2022-10-11T11:29:06.325Z,10.70
2022-10-11T11:32:05.030Z,10.38
2022-10-11T11:35:03.276Z,7.65
2022-10-11T11:37:42.328Z,7.15
2022-10-11T11:40:21.331Z,10.38
2022-10-11T11:43:07.168Z,6.82
2022-10-11T11:45:51.285Z,9.32
2022-10-11T11:48:24.718Z,8.60
2022-10-11T11:51:07.948Z,9.07
2022-10-11T11:54:15.924Z,7.57
2022-10-11T11:56:51.252Z,9.13
2022-10-11T11:59:37.376Z,10.57
2022-10-11T12:02:51.715Z,8.98
2022-10-11T12:05:27.809Z,7.13
2022-10-11T12:08:03.452Z,9.82
2022-10-11T12:10:53.428Z,8.90
2022-10-11T12:13:32.471Z,9.02
2022-10-11T12:16:21.490Z,9.60
2022-10-11T12:19:02.960Z,7.95
2022-10-11T12:21:35.004Z,8.77
2022-10-11T12:24:20.049Z,9.95
2022-10-11T12:26:54.512Z,8.85
2022-10-11T12:29:48.712Z,9.07
2022-10-11T12:32:27.584Z,8.88
2022-10-11T12:35:30.078Z,7.32
2022-10-11T12:38:37.169Z,9.90
2022-10-11T12:41:09.865Z,8.77
2022-10-11T12:44:07.685Z,10.48
2022-10-11T12:47:01.588Z,7.78
2022-10-11T12:49:49.759Z,7.25
2022-10-11T12:52:27.601Z,10.52
2022-10-11T12:55:12.517Z,6.70
2022-10-11T12:58:05.978Z,8.57
2022-10-11T13:01:02.772Z,5.75
2022-10-11T13:03:50.753Z,13.27
2022-10-11T13:06:45.633Z,6.70
2022-10-11T13:09:35.004Z,16.27
2022-10-11T13:12:25.870Z,11.63
2022-10-11T13:15:07.005Z,7.38
2022-10-11T13:17:39.089Z,10.55
2022-10-11T13:20:28.440Z,8.05
2022-10-11T13:22:57.358Z,9.88
2022-10-11T13:25:36.882Z,10.75
2022-10-11T13:28:09.355Z,6.72
2022-10-11T13:30:42.415Z,7.03
2022-10-11T13:33:25.425Z,7.10
2022-10-11T13:35:53.767Z,8.98
2022-10-11T13:38:27.457Z,7.07
2022-10-11T13:40:58.179Z,8.88
2022-10-11T13:43:31.024Z,6.47
2022-10-11T13:46:01.800Z,9.98
2022-10-11T13:48:31.839Z,7.50
2022-10-11T13:51:28.781Z,8.38
2022-10-11T13:54:06.208Z,8.38
2022-10-11T13:56:46.206Z,4.93
2022-10-11T13:59:23.917Z,14.00
2022-10-11T14:02:00.128Z,11.32
2022-10-11T14:04:29.924Z,7.38
2022-10-11T14:07:03.292Z,7.85
2022-10-11T14:09:38.510Z,7.15
2022-10-11T14:12:43.191Z,9.35
2022-10-11T14:15:36.013Z,9.57
2022-10-11T14:18:49.807Z,9.73
2022-10-11T14:21:19.261Z,6.65
2022-10-11T14:24:10.533Z,8.25
2022-10-11T14:26:39.924Z,6.70
2022-10-11T14:29:32.788Z,8.50
2022-10-11T14:32:05.848Z,8.45
2022-10-11T14:34:34.507Z,6.80
2022-10-11T14:37:01.269Z,10.75
2022-10-11T14:39:31.927Z,7.05
2022-10-11T14:41:59.389Z,9.95
2022-10-11T14:44:26.364Z,8.77
2022-10-11T14:46:54.762Z,6.75
2022-10-11T14:49:26.627Z,8.00
2022-10-11T14:51:57.385Z,7.70
2022-10-11T14:54:27.063Z,5.75
2022-10-11T14:56:57.141Z,8.82
2022-10-11T14:59:31.628Z,7.90
2022-10-11T15:01:58.406Z,7.45
2022-10-11T15:04:27.197Z,6.75
2022-10-11T15:06:56.508Z,7.45
2022-10-11T15:09:28.267Z,6.82
2022-10-11T15:11:55.753Z,9.98
2022-10-11T15:14:23.767Z,7.97
2022-10-11T15:16:50.984Z,10.13
2022-10-11T15:19:22.351Z,7.57
2022-10-11T15:21:49.822Z,10.45
2022-10-11T15:24:19.942Z,10.00
2022-10-11T15:26:48.052Z,7.80
2022-10-11T15:29:17.919Z,7.28
2022-10-11T15:31:46.046Z,9.50
2022-10-11T15:34:12.802Z,8.85
2022-10-11T15:36:39.640Z,7.53
2022-10-11T15:39:32.511Z,4.75
2022-10-11T15:41:59.625Z,8.60
2022-10-11T15:44:26.554Z,8.80
2022-10-11T15:46:53.530Z,8.57
2022-10-11T15:49:20.596Z,8.55
2022-10-11T15:51:47.496Z,5.95
2022-10-11T15:54:14.190Z,6.85
2022-10-11T15:56:41.085Z,5.93
2022-10-11T15:59:11.585Z,6.78
2022-10-11T16:01:38.411Z,9.50
2022-10-11T16:04:05.470Z,8.80
2022-10-11T16:06:33.293Z,8.45
2022-10-11T16:09:00.039Z,6.13
2022-10-11T16:11:26.839Z,6.72
2022-10-11T16:13:53.553Z,7.43
2022-10-11T16:16:20.281Z,9.32
2022-10-11T16:18:50.279Z,9.65
2022-10-11T16:21:17.231Z,5.18
2022-10-11T16:23:44.020Z,4.68
2022-10-11T16:26:16.503Z,8.18
2022-10-11T16:28:44.099Z,11.85
2022-10-11T16:31:20.947Z,9.35
2022-10-11T16:33:48.652Z,6.18
2022-10-11T16:36:40.212Z,7.85
2022-10-11T16:39:15.017Z,7.65
2022-10-11T16:41:42.870Z,11.80
2022-10-11T16:44:15.412Z,6.65
2022-10-11T16:46:47.675Z,9.00
2022-10-11T16:49:21.972Z,11.02
2022-10-11T16:51:51.476Z,8.00
2022-10-11T16:54:20.468Z,16.35
2022-10-11T16:56:51.512Z,12.23
2022-10-11T16:59:18.523Z,6.88
2022-10-11T17:01:45.914Z,7.65
2022-10-11T17:04:13.466Z,7.35
2022-10-11T17:06:41.201Z,13.27
2022-10-11T17:09:07.967Z,12.13
2022-10-11T17:11:34.693Z,12.77
2022-10-11T17:14:02.411Z,18.30
2022-10-11T17:16:29.414Z,12.10
2022-10-11T17:18:56.216Z,12.68
2022-10-11T17:21:24.148Z,18.63
2022-10-11T17:23:51.333Z,13.05
2022-10-11T17:26:26.298Z,12.02
2022-10-11T17:28:58.882Z,13.52
2022-10-11T17:31:27.917Z,17.23
2022-10-11T17:33:57.559Z,13.57
2022-10-11T17:36:31.731Z,14.07
2022-10-11T17:39:01.713Z,15.65
2022-10-11T17:41:31.984Z,14.73
2022-10-11T17:44:01.234Z,12.98
2022-10-11T17:46:32.323Z,12.40
2022-10-11T17:49:04.859Z,18.15
2022-10-11T17:51:32.910Z,12.43
2022-10-11T17:53:59.745Z,11.02
2022-10-11T17:56:31.352Z,16.25
2022-10-11T17:59:00.892Z,19.25
2022-10-11T18:01:29.674Z,16.70
2022-10-11T18:04:00.901Z,16.20
2022-10-11T18:06:31.858Z,19.40
2022-10-11T18:09:04.258Z,22.65
2022-10-11T18:13:58.562Z,33.17
2022-10-11T18:16:30.406Z,32.97
2022-10-11T18:18:58.552Z,37.30
2022-10-11T18:21:29.974Z,33.10
2022-10-11T18:24:03.627Z,33.30
2022-10-11T18:26:31.195Z,28.83
2022-10-11T18:28:59.295Z,40.17
2022-10-11T18:31:30.579Z,31.48
2022-10-11T18:33:58.742Z,35.67
2022-10-11T18:36:28.974Z,34.58
2022-10-11T18:39:01.047Z,33.63
2022-10-11T18:41:31.974Z,32.10
2022-10-11T18:44:04.256Z,38.35
2022-10-11T18:46:32.481Z,28.38
2022-10-11T18:49:02.130Z,27.95
2022-10-11T18:51:36.369Z,34.63
2022-10-11T18:54:05.508Z,29.40
2022-10-11T18:56:34.536Z,29.20
2022-10-11T18:59:01.299Z,29.52
2022-10-11T19:01:44.626Z,25.48
2022-10-11T19:04:19.123Z,28.25
2022-10-11T19:06:57.315Z,25.75
2022-10-11T19:09:40.952Z,29.58
2022-10-11T19:12:20.293Z,26.35
2022-10-11T19:14:53.243Z,24.80
2022-10-11T19:17:39.937Z,24.25
2022-10-11T19:20:16.116Z,25.35
2022-10-11T19:22:49.923Z,25.52
2022-10-11T19:25:22.006Z,21.05
2022-10-11T19:27:54.449Z,23.63
2022-10-11T19:30:32.263Z,25.40
2022-10-11T19:33:11.467Z,25.80
2022-10-11T19:35:59.242Z,24.05
2022-10-11T19:38:36.849Z,27.48
2022-10-11T19:41:10.221Z,23.90
2022-10-11T19:43:46.834Z,22.08
2022-10-11T19:46:50.499Z,23.10
2022-10-11T19:49:28.076Z,23.80
2022-10-11T19:52:14.790Z,27.60
2022-10-11T19:54:53.066Z,23.67
2022-10-11T19:57:39.788Z,20.45
2022-10-11T20:00:25.405Z,26.33
2022-10-11T20:02:52.389Z,27.77
2022-10-11T20:05:19.189Z,22.58
2022-10-11T20:07:45.990Z,21.27
2022-10-11T20:10:12.820Z,25.98
2022-10-11T20:12:45.042Z,25.90
2022-10-11T20:15:12.618Z,19.83
2022-10-11T20:17:48.610Z,22.05
2022-10-11T20:20:18.186Z,22.40
2022-10-11T20:22:45.134Z,22.88
2022-10-11T20:25:12.069Z,22.35
2022-10-11T20:27:42.382Z,26.77
2022-10-11T20:30:10.284Z,24.80
2022-10-11T20:32:37.021Z,24.52
2022-10-11T20:35:04.106Z,29.27
2022-10-11T20:37:31.189Z,24.30
2022-10-11T20:39:58.505Z,30.92
2022-10-11T20:42:28.929Z,24.20
2022-10-11T20:44:56.723Z,22.17
2022-10-11T20:47:23.471Z,25.10
2022-10-11T20:49:50.240Z,22.20
2022-10-11T20:52:17.106Z,22.23
2022-10-11T20:54:43.929Z,23.38
2022-10-11T20:57:10.741Z,21.17
2022-10-11T20:59:38.001Z,25.20
2022-10-11T21:02:04.731Z,23.35
2022-10-11T21:04:31.467Z,21.77
2022-10-11T21:06:58.175Z,29.67
2022-10-11T21:09:25.006Z,30.33
2022-10-11T21:11:51.749Z,31.23
2022-10-11T21:14:18.587Z,26.00
2022-10-11T21:16:45.367Z,26.35
2022-10-11T21:19:15.998Z,23.75
2022-10-11T21:21:46.439Z,23.95
2022-10-11T21:24:15.200Z,26.48
2022-10-11T21:26:41.902Z,24.58
2022-10-11T21:29:08.706Z,31.35
2022-10-11T21:31:35.974Z,26.95
2022-10-11T21:34:05.125Z,28.10
2022-10-11T21:36:31.961Z,26.85
2022-10-11T21:38:58.751Z,21.60
2022-10-11T21:41:30.060Z,25.35
2022-10-11T21:43:57.888Z,24.33
2022-10-11T21:49:19.240Z,29.63
2022-10-11T21:51:46.308Z,26.50
2022-10-11T21:54:13.074Z,29.75
2022-10-11T21:56:39.894Z,27.38
2022-10-11T21:59:11.124Z,21.73
2022-10-11T22:01:41.731Z,29.33
2022-10-11T22:04:10.844Z,28.80
2022-10-11T22:06:38.769Z,34.35
2022-10-11T22:09:07.713Z,25.92
2022-10-11T22:11:35.413Z,32.78
2022-10-11T22:14:02.653Z,29.88
2022-10-11T22:16:29.785Z,28.67
2022-10-11T22:18:56.915Z,32.75
2022-10-11T22:21:23.921Z,29.63
2022-10-11T22:23:53.939Z,33.85
2022-10-11T22:26:30.567Z,25.75
2022-10-11T22:28:59.519Z,25.08
2022-10-11T22:31:26.752Z,26.50
2022-10-11T22:34:00.375Z,19.15
2022-10-11T22:36:30.424Z,24.00
2022-10-11T22:38:58.585Z,20.85
2022-10-11T22:41:25.892Z,24.35
2022-10-11T22:43:52.977Z,19.75
2022-10-11T22:46:19.925Z,21.58
2022-10-11T22:48:46.902Z,28.50
2022-10-11T22:51:14.474Z,21.33
2022-10-11T22:53:41.628Z,22.67
2022-10-11T22:56:09.334Z,20.38
2022-10-11T22:58:36.884Z,22.35
2022-10-11T23:01:12.798Z,21.80
2022-10-11T23:03:40.039Z,14.48
2022-10-11T23:06:07.725Z,23.77
2022-10-11T23:08:34.797Z,24.27
2022-10-11T23:11:07.132Z,20.38
2022-10-11T23:13:35.190Z,20.60
2022-10-11T23:16:10.701Z,18.85
2022-10-11T23:18:38.278Z,16.98
2022-10-11T23:21:06.876Z,16.58
2022-10-11T23:23:34.513Z,19.15
2022-10-11T23:26:02.222Z,20.73
2022-10-11T23:28:29.407Z,21.13
2022-10-11T23:30:56.655Z,20.90
2022-10-11T23:33:23.703Z,20.98
2022-10-11T23:35:51.010Z,20.67
2022-10-11T23:38:18.146Z,19.58
2022-10-11T23:40:45.184Z,22.05
2022-10-11T23:43:12.355Z,24.00
2022-10-11T23:45:39.496Z,20.23
2022-10-11T23:48:06.641Z,20.05
2022-10-11T23:50:33.676Z,19.13
2022-10-11T23:53:00.713Z,19.88
2022-10-11T23:55:27.804Z,17.52
2022-10-11T23:57:54.849Z,17.17
